createdAt,value
2018-06-21T00:00:17.115Z,93.73
2018-06-21T00:01:17.117Z,93.63
2018-06-21T00:02:17.118Z,94.40
2018-06-21T00:03:17.122Z,93.91
2018-06-21T00:04:17.124Z,94.30
2018-06-21T00:05:17.127Z,94.30
2018-06-21T00:06:17.128Z,94.11
2018-06-21T00:07:17.130Z,94.21
2018-06-21T00:08:17.135Z,94.21
2018-06-21T00:09:17.136Z,94.06
2018-06-21T00:10:17.138Z,93.82
2018-06-21T00:11:17.140Z,93.53
2018-06-21T00:12:17.146Z,93.63
2018-06-21T00:13:17.146Z,94.01
2018-06-21T00:14:17.148Z,93.82
2018-06-21T00:15:17.151Z,93.82
2018-06-21T00:16:17.154Z,94.26
2018-06-21T00:17:17.156Z,94.21
2018-06-21T00:18:17.158Z,93.91
2018-06-21T00:19:17.163Z,93.91
2018-06-21T00:20:17.163Z,94.40
2018-06-21T00:21:17.166Z,94.26
2018-06-21T00:22:17.166Z,94.64
2018-06-21T00:23:17.169Z,94.26
2018-06-21T00:24:17.172Z,93.87
2018-06-21T00:25:17.176Z,94.45
2018-06-21T00:26:17.175Z,94.26
2018-06-21T00:27:17.179Z,93.96
2018-06-21T00:28:17.183Z,93.96
2018-06-21T00:29:17.244Z,94.26
2018-06-21T00:30:17.185Z,94.64
2018-06-21T00:31:17.187Z,94.73
2018-06-21T00:32:17.191Z,94.93
2018-06-21T00:33:17.192Z,94.93
2018-06-21T00:34:17.193Z,94.83
2018-06-21T00:35:17.196Z,94.64
2018-06-21T00:36:17.200Z,94.35
2018-06-21T00:37:17.203Z,94.64
2018-06-21T00:38:17.204Z,94.64
2018-06-21T00:39:17.205Z,94.64
2018-06-21T00:40:17.208Z,94.93
2018-06-21T00:41:17.211Z,94.93
2018-06-21T00:42:17.211Z,94.45
2018-06-21T00:43:17.214Z,95.21
2018-06-21T00:44:17.217Z,94.78
2018-06-21T00:45:17.218Z,94.59
2018-06-21T00:46:17.220Z,94.83
2018-06-21T00:47:17.222Z,94.83
2018-06-21T00:48:17.226Z,94.78
2018-06-21T00:49:17.227Z,95.03
2018-06-21T00:50:17.228Z,94.78
2018-06-21T00:51:17.234Z,94.98
2018-06-21T00:52:17.235Z,94.78
2018-06-21T00:53:17.237Z,94.98
2018-06-21T00:54:17.242Z,95.36
2018-06-21T00:55:17.240Z,95.36
2018-06-21T00:56:17.242Z,94.98
2018-06-21T00:57:17.245Z,95.07
2018-06-21T00:58:17.246Z,95.07
2018-06-21T00:59:17.247Z,94.69
2018-06-21T01:00:17.250Z,94.98
2018-06-21T01:01:17.254Z,94.88
2018-06-21T01:02:17.254Z,95.17
2018-06-21T01:03:17.257Z,95.45
2018-06-21T01:04:17.258Z,95.60
2018-06-21T01:05:17.260Z,95.17
2018-06-21T01:06:17.266Z,95.65
2018-06-21T01:07:17.264Z,94.88
2018-06-21T01:08:17.266Z,95.17
2018-06-21T01:09:17.270Z,95.17
2018-06-21T01:10:17.269Z,95.26
2018-06-21T01:11:17.272Z,95.07
2018-06-21T01:12:17.275Z,95.70
2018-06-21T01:13:17.276Z,95.75
2018-06-21T01:14:17.278Z,94.98
2018-06-21T01:15:17.282Z,95.36
2018-06-21T01:16:17.283Z,95.36
2018-06-21T01:17:17.284Z,95.36
2018-06-21T01:18:17.285Z,95.31
2018-06-21T01:19:17.286Z,95.17
2018-06-21T01:20:17.290Z,95.45
2018-06-21T01:21:17.291Z,95.84
2018-06-21T01:22:17.294Z,94.83
2018-06-21T01:23:17.295Z,95.17
2018-06-21T01:24:17.297Z,95.36
2018-06-21T01:25:17.304Z,95.03
2018-06-21T01:26:17.301Z,95.36
2018-06-21T01:27:17.302Z,95.26
2018-06-21T01:28:17.305Z,95.17
2018-06-21T01:29:17.307Z,95.17
2018-06-21T01:30:17.307Z,95.07
2018-06-21T01:31:17.310Z,95.45
2018-06-21T01:32:17.311Z,95.36
2018-06-21T01:33:17.314Z,95.17
2018-06-21T01:34:17.315Z,94.88
2018-06-21T01:35:17.318Z,95.17
2018-06-21T01:36:17.320Z,95.36
2018-06-21T01:37:17.323Z,94.88
2018-06-21T01:38:17.328Z,94.88
2018-06-21T01:39:17.325Z,94.88
2018-06-21T01:40:17.327Z,94.98
2018-06-21T01:41:17.329Z,94.88
2018-06-21T01:42:17.330Z,94.88
2018-06-21T01:43:17.332Z,95.17
2018-06-21T01:44:17.336Z,94.59
2018-06-21T01:45:17.335Z,94.98
2018-06-21T01:46:17.337Z,94.98
2018-06-21T01:47:17.339Z,94.69
2018-06-21T01:48:17.340Z,94.88
2018-06-21T01:49:17.342Z,94.59
2018-06-21T01:50:17.344Z,94.98
2018-06-21T01:51:17.346Z,95.45
2018-06-21T01:52:17.348Z,95.50
2018-06-21T01:53:17.351Z,95.12
2018-06-21T01:54:17.351Z,95.65
2018-06-21T01:55:17.354Z,95.26
2018-06-21T01:56:17.357Z,95.31
2018-06-21T01:57:17.356Z,95.31
2018-06-21T01:58:17.358Z,95.12
2018-06-21T01:59:17.361Z,95.41
2018-06-21T02:00:17.362Z,95.50
2018-06-21T02:01:17.377Z,95.70
2018-06-21T02:02:17.364Z,95.12
2018-06-21T02:03:17.368Z,95.31
2018-06-21T02:04:17.370Z,95.41
2018-06-21T02:05:17.370Z,95.41
2018-06-21T02:06:17.372Z,95.41
2018-06-21T02:07:17.373Z,95.12
2018-06-21T02:08:17.376Z,95.21
2018-06-21T02:09:17.378Z,95.31
2018-06-21T02:10:17.381Z,95.12
2018-06-21T02:11:17.381Z,95.21
2018-06-21T02:12:17.382Z,95.31
2018-06-21T02:13:17.389Z,95.12
2018-06-21T02:14:17.390Z,94.93
2018-06-21T02:15:17.387Z,95.21
2018-06-21T02:16:17.388Z,95.31
2018-06-21T02:17:17.391Z,95.31
2018-06-21T02:18:17.391Z,94.64
2018-06-21T02:19:17.397Z,95.31
2018-06-21T02:20:17.396Z,95.12
2018-06-21T02:21:17.397Z,95.31
2018-06-21T02:22:17.400Z,95.12
2018-06-21T02:23:17.404Z,95.31
2018-06-21T02:24:17.402Z,95.21
2018-06-21T02:25:17.408Z,95.31
2018-06-21T02:26:17.404Z,95.31
2018-06-21T02:27:17.407Z,95.41
2018-06-21T02:28:17.409Z,95.41
2018-06-21T02:29:17.410Z,95.50
2018-06-21T02:30:17.415Z,95.12
2018-06-21T02:31:17.414Z,95.12
2018-06-21T02:32:17.416Z,95.50
2018-06-21T02:33:17.421Z,95.50
2018-06-21T02:34:17.451Z,95.60
2018-06-21T02:35:17.421Z,95.55
2018-06-21T02:36:17.422Z,95.79
2018-06-21T02:37:17.424Z,95.50
2018-06-21T02:38:17.424Z,95.98
2018-06-21T02:39:17.428Z,95.79
2018-06-21T02:40:17.428Z,95.75
2018-06-21T02:41:17.459Z,95.41
2018-06-21T02:42:17.431Z,95.60
2018-06-21T02:43:17.433Z,95.79
2018-06-21T02:44:17.434Z,95.89
2018-06-21T02:45:17.436Z,95.50
2018-06-21T02:46:17.438Z,95.94
2018-06-21T02:47:17.440Z,95.94
2018-06-21T02:48:17.441Z,95.98
2018-06-21T02:49:17.441Z,96.42
2018-06-21T02:50:17.444Z,95.84
2018-06-21T02:51:17.444Z,95.36
2018-06-21T02:52:17.446Z,95.41
2018-06-21T02:53:17.449Z,96.08
2018-06-21T02:54:17.452Z,95.55
2018-06-21T02:55:17.453Z,95.75
2018-06-21T02:56:17.456Z,96.13
2018-06-21T02:57:17.456Z,95.84
2018-06-21T02:58:17.455Z,96.03
2018-06-21T02:59:17.459Z,95.75
2018-06-21T03:00:17.458Z,95.84
2018-06-21T03:01:17.462Z,95.84
2018-06-21T03:02:17.461Z,95.84
2018-06-21T03:03:17.472Z,96.32
2018-06-21T03:04:17.465Z,96.61
2018-06-21T03:05:17.468Z,96.51
2018-06-21T03:06:17.467Z,96.51
2018-06-21T03:07:17.471Z,96.51
2018-06-21T03:08:17.471Z,95.75
2018-06-21T03:09:17.473Z,96.03
2018-06-21T03:10:17.481Z,96.03
2018-06-21T03:11:17.523Z,96.51
2018-06-21T03:12:17.478Z,95.94
2018-06-21T03:13:17.480Z,96.51
2018-06-21T03:14:17.479Z,95.84
2018-06-21T03:15:17.479Z,95.84
2018-06-21T03:16:17.482Z,95.65
2018-06-21T03:17:17.485Z,96.13
2018-06-21T03:18:17.483Z,95.94
2018-06-21T03:19:17.484Z,95.94
2018-06-21T03:20:17.487Z,95.84
2018-06-21T03:21:17.489Z,95.75
2018-06-21T03:22:17.490Z,96.03
2018-06-21T03:23:17.490Z,95.94
2018-06-21T03:24:17.493Z,95.36
2018-06-21T03:25:17.494Z,96.03
2018-06-21T03:26:17.499Z,96.03
2018-06-21T03:27:17.496Z,95.84
2018-06-21T03:28:17.499Z,95.84
2018-06-21T03:29:17.500Z,95.84
2018-06-21T03:30:17.500Z,95.84
2018-06-21T03:31:17.503Z,96.51
2018-06-21T03:32:17.503Z,96.22
2018-06-21T03:33:17.506Z,96.32
2018-06-21T03:34:17.506Z,95.94
2018-06-21T03:35:17.527Z,96.42
2018-06-21T03:36:17.508Z,96.42
2018-06-21T03:37:17.511Z,96.51
2018-06-21T03:38:17.563Z,96.22
2018-06-21T03:39:17.512Z,96.32
2018-06-21T03:40:17.515Z,96.61
2018-06-21T03:41:17.517Z,96.42
2018-06-21T03:42:17.516Z,96.51
2018-06-21T03:43:17.519Z,95.65
2018-06-21T03:44:17.520Z,95.65
2018-06-21T03:45:17.523Z,95.65
2018-06-21T03:46:17.521Z,95.55
2018-06-21T03:47:17.523Z,95.65
2018-06-21T03:48:17.525Z,95.55
2018-06-21T03:49:17.526Z,95.84
2018-06-21T03:50:17.527Z,95.84
2018-06-21T03:51:17.529Z,95.55
2018-06-21T03:52:17.549Z,95.55
2018-06-21T03:53:17.532Z,95.84
2018-06-21T03:54:17.533Z,95.75
2018-06-21T03:55:17.538Z,95.46
2018-06-21T03:56:17.535Z,95.46
2018-06-21T03:57:17.536Z,95.55
2018-06-21T03:58:17.536Z,95.55
2018-06-21T03:59:17.538Z,95.36
2018-06-21T04:00:17.540Z,95.84
2018-06-21T04:01:17.542Z,95.55
2018-06-21T04:02:17.542Z,95.65
2018-06-21T04:03:17.544Z,95.55
2018-06-21T04:04:17.545Z,95.46
2018-06-21T04:05:17.581Z,96.13
2018-06-21T04:06:17.549Z,95.36
2018-06-21T04:07:17.550Z,96.03
2018-06-21T04:08:17.572Z,95.55
2018-06-21T04:09:17.553Z,95.75
2018-06-21T04:10:17.553Z,95.84
2018-06-21T04:11:17.558Z,95.75
2018-06-21T04:12:17.556Z,95.46
2018-06-21T04:13:17.557Z,95.98
2018-06-21T04:14:17.558Z,95.55
2018-06-21T04:15:17.560Z,95.98
2018-06-21T04:16:17.564Z,95.50
2018-06-21T04:17:17.567Z,95.50
2018-06-21T04:18:17.564Z,95.50
2018-06-21T04:19:17.565Z,94.83
2018-06-21T04:20:17.567Z,95.70
2018-06-21T04:21:17.570Z,95.60
2018-06-21T04:22:17.569Z,95.31
2018-06-21T04:23:17.572Z,95.12
2018-06-21T04:24:17.574Z,95.31
2018-06-21T04:25:17.575Z,94.83
2018-06-21T04:26:17.575Z,95.03
2018-06-21T04:27:17.576Z,95.21
2018-06-21T04:28:17.578Z,94.83
2018-06-21T04:29:17.580Z,94.74
2018-06-21T04:30:17.580Z,95.12
2018-06-21T04:31:17.583Z,95.41
2018-06-21T04:32:17.627Z,95.31
2018-06-21T04:33:17.586Z,94.64
2018-06-21T04:34:17.587Z,94.93
2018-06-21T04:35:17.589Z,95.03
2018-06-21T04:36:17.589Z,94.83
2018-06-21T04:37:17.591Z,94.64
2018-06-21T04:38:17.592Z,94.93
2018-06-21T04:39:17.594Z,95.31
2018-06-21T04:40:17.596Z,94.83
2018-06-21T04:41:17.597Z,94.74
2018-06-21T04:42:17.598Z,95.31
2018-06-21T04:43:17.599Z,94.93
2018-06-21T04:44:17.601Z,94.64
2018-06-21T04:45:17.604Z,94.78
2018-06-21T04:46:17.605Z,94.88
2018-06-21T04:47:17.605Z,95.07
2018-06-21T04:48:17.612Z,94.01
2018-06-21T04:49:17.612Z,94.78
2018-06-21T04:50:17.612Z,94.98
2018-06-21T04:51:17.613Z,94.78
2018-06-21T04:52:17.614Z,94.59
2018-06-21T04:53:17.617Z,94.78
2018-06-21T04:54:17.617Z,94.69
2018-06-21T04:55:17.619Z,94.78
2018-06-21T04:56:17.623Z,94.59
2018-06-21T04:57:17.622Z,94.98
2018-06-21T04:58:17.624Z,94.59
2018-06-21T04:59:17.626Z,94.88
2018-06-21T05:00:17.628Z,94.78
2018-06-21T05:01:17.630Z,94.49
2018-06-21T05:02:17.631Z,94.59
2018-06-21T05:03:17.636Z,94.11
2018-06-21T05:04:17.635Z,94.11
2018-06-21T05:05:17.637Z,94.64
2018-06-21T05:06:17.647Z,94.59
2018-06-21T05:07:17.639Z,94.35
2018-06-21T05:08:17.642Z,94.16
2018-06-21T05:09:17.644Z,94.26
2018-06-21T05:10:17.646Z,94.83
2018-06-21T05:11:17.647Z,94.26
2018-06-21T05:12:17.648Z,94.45
2018-06-21T05:13:17.651Z,94.16
2018-06-21T05:14:17.653Z,93.68
2018-06-21T05:15:17.655Z,93.68
2018-06-21T05:16:17.657Z,93.49
2018-06-21T05:17:17.659Z,93.58
2018-06-21T05:18:17.709Z,93.58
2018-06-21T05:19:17.663Z,93.96
2018-06-21T05:20:17.668Z,93.87
2018-06-21T05:21:17.667Z,94.01
2018-06-21T05:22:17.671Z,93.49
2018-06-21T05:23:17.674Z,93.82
2018-06-21T05:24:17.672Z,93.77
2018-06-21T05:25:17.674Z,93.53
2018-06-21T05:26:17.678Z,93.24
2018-06-21T05:27:17.678Z,92.96
2018-06-21T05:28:17.680Z,93.24
2018-06-21T05:29:17.682Z,93.24
2018-06-21T05:30:17.685Z,93.53
2018-06-21T05:31:17.687Z,92.96
2018-06-21T05:32:17.691Z,92.96
2018-06-21T05:33:17.691Z,93.15
2018-06-21T05:34:17.692Z,93.34
2018-06-21T05:35:17.696Z,93.05
2018-06-21T05:36:17.697Z,93.05
2018-06-21T05:37:17.700Z,93.00
2018-06-21T05:38:17.702Z,92.57
2018-06-21T05:39:17.704Z,92.23
2018-06-21T05:40:17.706Z,92.81
2018-06-21T05:41:17.712Z,92.81
2018-06-21T05:42:17.710Z,93.00
2018-06-21T05:43:17.714Z,92.13
2018-06-21T05:44:17.720Z,92.91
2018-06-21T05:45:17.718Z,92.81
2018-06-21T05:46:17.724Z,92.81
2018-06-21T05:47:17.722Z,92.04
2018-06-21T05:48:17.726Z,92.04
2018-06-21T05:49:17.728Z,91.56
2018-06-21T05:50:17.785Z,92.04
2018-06-21T05:51:17.732Z,91.94
2018-06-21T05:52:17.735Z,92.08
2018-06-21T05:53:17.738Z,92.18
2018-06-21T05:54:17.780Z,92.28
2018-06-21T05:55:17.743Z,92.18
2018-06-21T05:56:17.745Z,91.99
2018-06-21T05:57:17.748Z,91.51
2018-06-21T05:58:17.749Z,92.08
2018-06-21T05:59:17.754Z,91.70
2018-06-21T06:00:17.755Z,91.70
2018-06-21T06:01:17.759Z,91.65
2018-06-21T06:02:17.912Z,91.17
2018-06-21T06:03:17.792Z,91.27
2018-06-21T06:04:17.853Z,91.07
2018-06-21T06:05:17.822Z,91.17
2018-06-21T06:06:17.809Z,90.88
2018-06-21T06:07:17.880Z,91.17
2018-06-21T06:08:17.914Z,90.69
2018-06-21T06:09:17.875Z,91.17
2018-06-21T06:10:17.784Z,90.64
2018-06-21T06:11:17.786Z,90.06
2018-06-21T06:12:17.788Z,90.25
2018-06-21T06:13:17.792Z,89.96
2018-06-21T06:14:17.795Z,89.96
2018-06-21T06:15:17.799Z,89.67
2018-06-21T06:16:17.802Z,89.77
2018-06-21T06:17:17.805Z,90.00
2018-06-21T06:18:17.808Z,89.43
2018-06-21T06:19:17.810Z,89.62
2018-06-21T06:20:17.813Z,89.72
2018-06-21T06:21:17.818Z,89.53
2018-06-21T06:22:17.819Z,89.43
2018-06-21T06:23:17.823Z,89.14
2018-06-21T06:24:17.826Z,89.43
2018-06-21T06:25:17.831Z,89.47
2018-06-21T06:26:17.833Z,88.85
2018-06-21T06:27:17.837Z,88.65
2018-06-21T06:28:17.841Z,88.85
2018-06-21T06:29:17.845Z,87.74
2018-06-21T06:30:17.846Z,87.93
2018-06-21T06:31:17.850Z,87.16
2018-06-21T06:32:17.854Z,87.26
2018-06-21T06:33:17.858Z,88.79
2018-06-21T06:34:17.862Z,86.72
2018-06-21T06:35:17.866Z,87.30
2018-06-21T06:36:17.868Z,87.49
2018-06-21T06:37:17.876Z,85.85
2018-06-21T06:38:17.875Z,86.14
2018-06-21T06:39:17.880Z,87.10
2018-06-21T06:40:17.904Z,87.59
2018-06-21T06:41:17.891Z,87.73
2018-06-21T06:42:17.891Z,86.96
2018-06-21T06:43:17.895Z,85.80
2018-06-21T06:44:17.899Z,86.08
2018-06-21T06:45:17.903Z,86.08
2018-06-21T06:46:17.938Z,85.12
2018-06-21T06:47:17.911Z,84.54
2018-06-21T06:48:17.914Z,85.02
2018-06-21T06:49:17.920Z,84.58
2018-06-21T06:50:17.922Z,84.58
2018-06-21T06:51:17.928Z,84.20
2018-06-21T06:52:17.934Z,83.42
2018-06-21T06:53:17.935Z,84.10
2018-06-21T06:54:17.941Z,84.39
2018-06-21T06:55:17.943Z,84.10
2018-06-21T06:56:17.948Z,83.23
2018-06-21T06:57:17.953Z,82.07
2018-06-21T06:58:17.956Z,81.30
2018-06-21T06:59:17.961Z,83.33
2018-06-21T07:00:17.966Z,82.26
2018-06-21T07:01:17.970Z,81.53
2018-06-21T07:02:17.975Z,81.44
2018-06-21T07:03:17.978Z,80.72
2018-06-21T07:04:17.983Z,81.44
2018-06-21T07:05:17.987Z,81.24
2018-06-21T07:06:17.991Z,81.15
2018-06-21T07:07:17.998Z,80.76
2018-06-21T07:08:18.069Z,81.73
2018-06-21T07:09:18.007Z,81.15
2018-06-21T07:10:18.011Z,81.44
2018-06-21T07:11:18.015Z,80.80
2018-06-21T07:12:18.019Z,81.09
2018-06-21T07:13:18.265Z,83.03
2018-06-21T07:14:18.064Z,81.29
2018-06-21T07:15:18.035Z,82.45
2018-06-21T07:16:18.040Z,81.48
2018-06-21T07:17:18.044Z,79.74
2018-06-21T07:18:18.049Z,79.87
2018-06-21T07:19:18.053Z,80.65
2018-06-21T07:20:18.079Z,80.16
2018-06-21T07:21:18.112Z,79.97
2018-06-21T07:22:18.067Z,80.98
2018-06-21T07:23:18.075Z,83.11
2018-06-21T07:24:18.079Z,79.52
2018-06-21T07:25:18.083Z,78.85
2018-06-21T07:26:18.089Z,77.69
2018-06-21T07:27:18.093Z,77.88
2018-06-21T07:28:18.099Z,78.85
2018-06-21T07:29:18.108Z,80.34
2018-06-21T07:30:18.116Z,77.92
2018-06-21T07:31:18.115Z,78.31
2018-06-21T07:32:18.120Z,79.85
2018-06-21T07:33:18.222Z,78.50
2018-06-21T07:34:18.135Z,77.67
2018-06-21T07:35:18.139Z,77.37
2018-06-21T07:36:18.159Z,77.47
2018-06-21T07:37:18.152Z,74.90
2018-06-21T07:38:18.170Z,74.26
2018-06-21T07:39:18.168Z,71.58
2018-06-21T07:40:18.245Z,73.16
2018-06-21T07:41:18.186Z,72.61
2018-06-21T07:42:18.192Z,72.75
2018-06-21T07:43:18.203Z,67.15
2018-06-21T07:44:18.212Z,64.85
2018-06-21T07:45:18.222Z,63.03
2018-06-21T07:46:18.232Z,60.99
2018-06-21T07:47:18.245Z,60.72
2018-06-21T07:48:18.256Z,61.80
2018-06-21T07:49:18.265Z,60.46
2018-06-21T07:50:18.275Z,60.75
2018-06-21T07:51:18.286Z,61.02
2018-06-21T07:52:18.298Z,60.72
2018-06-21T07:53:18.309Z,60.31
2018-06-21T07:54:18.320Z,60.63
2018-06-21T07:55:18.333Z,61.90
2018-06-21T07:56:18.344Z,61.60
2018-06-21T07:57:18.356Z,61.41
2018-06-21T07:58:18.366Z,62.80
2018-06-21T07:59:18.380Z,60.78
2018-06-21T08:00:18.393Z,59.72
2018-06-21T08:01:18.406Z,60.03
2018-06-21T08:02:18.422Z,60.33
2018-06-21T08:03:18.434Z,59.94
2018-06-21T08:04:18.447Z,60.56
2018-06-21T08:05:18.461Z,61.83
2018-06-21T08:06:18.474Z,56.30
2018-06-21T08:07:18.489Z,56.11
2018-06-21T08:08:18.502Z,55.75
2018-06-21T08:09:18.516Z,55.82
2018-06-21T08:10:18.529Z,56.01
2018-06-21T08:11:18.544Z,53.38
2018-06-21T08:12:18.577Z,52.02
2018-06-21T08:13:18.573Z,52.80
2018-06-21T08:14:18.907Z,52.99
2018-06-21T08:15:18.866Z,52.53
2018-06-21T08:16:18.876Z,52.40
2018-06-21T08:17:18.910Z,50.87
2018-06-21T08:18:19.385Z,49.61
2018-06-21T08:19:18.660Z,51.14
2018-06-21T08:20:18.713Z,51.07
2018-06-21T08:21:18.693Z,49.58
2018-06-21T08:22:18.704Z,49.29
2018-06-21T08:23:18.735Z,49.39
2018-06-21T08:24:18.794Z,51.36
2018-06-21T08:25:18.749Z,50.58
2018-06-21T08:26:18.764Z,48.54
2018-06-21T08:27:18.808Z,48.24
2018-06-21T08:28:18.794Z,48.36
2018-06-21T08:29:18.813Z,49.63
2018-06-21T08:30:18.825Z,46.80
2018-06-21T08:31:18.840Z,48.29
2018-06-21T08:32:18.910Z,48.12
2018-06-21T08:33:18.878Z,46.66
2018-06-21T08:34:18.886Z,48.41
2018-06-21T08:35:18.905Z,46.95
2018-06-21T08:36:18.917Z,48.05
2018-06-21T08:37:18.934Z,46.97
2018-06-21T08:38:18.949Z,46.58
2018-06-21T08:39:18.963Z,47.46
2018-06-21T08:40:18.981Z,46.80
2018-06-21T08:41:18.998Z,44.63
2018-06-21T08:42:19.011Z,44.45
2018-06-21T08:43:19.029Z,44.65
2018-06-21T08:44:19.045Z,43.96
2018-06-21T08:45:19.061Z,43.48
2018-06-21T08:46:19.077Z,43.67
2018-06-21T08:47:19.093Z,43.49
2018-06-21T08:48:19.110Z,44.45
2018-06-21T08:49:19.125Z,44.57
2018-06-21T08:50:19.141Z,44.18
2018-06-21T08:51:19.158Z,43.71
2018-06-21T08:52:19.176Z,43.81
2018-06-21T08:53:19.190Z,44.62
2018-06-21T08:54:19.208Z,43.73
2018-06-21T08:55:19.225Z,44.01
2018-06-21T08:56:19.240Z,43.71
2018-06-21T08:57:19.258Z,43.84
2018-06-21T08:58:19.276Z,45.01
2018-06-21T08:59:19.325Z,44.91
2018-06-21T09:00:19.307Z,43.93
2018-06-21T09:01:19.326Z,43.46
2018-06-21T09:02:19.339Z,43.44
2018-06-21T09:03:19.357Z,44.89
2018-06-21T09:04:19.374Z,43.62
2018-06-21T09:05:19.391Z,43.99
2018-06-21T09:06:19.408Z,44.77
2018-06-21T09:07:19.424Z,45.04
2018-06-21T09:08:19.441Z,45.68
2018-06-21T09:09:19.459Z,47.09
2018-06-21T09:10:19.471Z,46.24
2018-06-21T09:11:19.488Z,46.07
2018-06-21T09:12:19.502Z,45.70
2018-06-21T09:13:19.518Z,45.90
2018-06-21T09:14:19.533Z,44.84
2018-06-21T09:15:19.561Z,44.45
2018-06-21T09:16:19.565Z,46.29
2018-06-21T09:17:19.581Z,45.61
2018-06-21T09:18:19.595Z,45.68
2018-06-21T09:19:19.829Z,46.90
2018-06-21T09:20:19.629Z,47.09
2018-06-21T09:21:19.639Z,46.39
2018-06-21T09:22:19.653Z,47.44
2018-06-21T09:23:19.666Z,48.00
2018-06-21T09:24:19.684Z,48.14
2018-06-21T09:25:19.696Z,48.14
2018-06-21T09:26:19.707Z,46.41
2018-06-21T09:27:19.720Z,47.44
2018-06-21T09:28:19.735Z,48.78
2018-06-21T09:29:19.747Z,49.78
2018-06-21T09:30:19.761Z,48.54
2018-06-21T09:31:19.798Z,48.34
2018-06-21T09:32:19.788Z,48.71
2018-06-21T09:33:19.829Z,49.97
2018-06-21T09:34:19.817Z,48.63
2018-06-21T09:35:19.825Z,49.00
2018-06-21T09:36:19.837Z,49.22
2018-06-21T09:37:19.850Z,49.29
2018-06-21T09:38:19.862Z,49.41
2018-06-21T09:39:19.874Z,48.85
2018-06-21T09:40:19.888Z,49.07
2018-06-21T09:41:19.902Z,47.92
2018-06-21T09:42:19.912Z,45.19
2018-06-21T09:43:19.927Z,44.80
2018-06-21T09:44:19.940Z,45.48
2018-06-21T09:45:19.953Z,45.19
2018-06-21T09:46:19.967Z,45.87
2018-06-21T09:47:19.982Z,45.97
2018-06-21T09:48:19.994Z,45.70
2018-06-21T09:49:20.010Z,46.89
2018-06-21T09:50:20.023Z,44.55
2018-06-21T09:51:20.039Z,42.03
2018-06-21T09:52:20.051Z,42.42
2018-06-21T09:53:20.069Z,42.42
2018-06-21T09:54:20.081Z,43.20
2018-06-21T09:55:20.095Z,41.44
2018-06-21T09:56:20.110Z,42.15
2018-06-21T09:57:20.128Z,41.36
2018-06-21T09:58:20.235Z,42.13
2018-06-21T09:59:20.218Z,42.91
2018-06-21T10:00:20.179Z,43.40
2018-06-21T10:01:20.184Z,43.89
2018-06-21T10:02:20.202Z,44.38
2018-06-21T10:03:20.214Z,43.10
2018-06-21T10:04:20.230Z,43.49
2018-06-21T10:05:20.243Z,43.62
2018-06-21T10:06:20.258Z,43.81
2018-06-21T10:07:20.272Z,43.24
2018-06-21T10:08:20.287Z,43.81
2018-06-21T10:09:20.302Z,43.03
2018-06-21T10:10:20.366Z,43.49
2018-06-21T10:11:20.333Z,42.13
2018-06-21T10:12:20.348Z,41.15
2018-06-21T10:13:20.477Z,43.13
2018-06-21T10:14:20.604Z,43.20
2018-06-21T10:15:20.395Z,41.07
2018-06-21T10:16:20.408Z,42.44
2018-06-21T10:17:20.422Z,40.70
2018-06-21T10:18:20.435Z,40.01
2018-06-21T10:19:20.451Z,41.19
2018-06-21T10:20:20.468Z,40.80
2018-06-21T10:21:20.481Z,42.36
2018-06-21T10:22:20.495Z,43.44
2018-06-21T10:23:20.512Z,44.49
2018-06-21T10:24:20.523Z,44.89
2018-06-21T10:25:20.538Z,44.49
2018-06-21T10:26:20.553Z,44.55
2018-06-21T10:27:20.576Z,44.55
2018-06-21T10:28:20.580Z,45.14
2018-06-21T10:29:20.596Z,44.96
2018-06-21T10:30:20.608Z,44.48
2018-06-21T10:31:20.622Z,44.67
2018-06-21T10:32:20.636Z,44.92
2018-06-21T10:33:20.708Z,45.21
2018-06-21T10:34:20.668Z,45.80
2018-06-21T10:35:20.678Z,46.34
2018-06-21T10:36:21.258Z,46.51
2018-06-21T10:37:20.706Z,47.71
2018-06-21T10:38:20.718Z,49.49
2018-06-21T10:39:20.730Z,48.51
2018-06-21T10:40:20.745Z,48.71
2018-06-21T10:41:20.758Z,49.29
2018-06-21T10:42:20.770Z,49.63
2018-06-21T10:43:20.782Z,49.41
2018-06-21T10:44:20.795Z,49.41
2018-06-21T10:45:20.809Z,50.31
2018-06-21T10:46:21.238Z,48.75
2018-06-21T10:47:20.832Z,49.17
2018-06-21T10:48:20.845Z,49.83
2018-06-21T10:49:20.858Z,50.19
2018-06-21T10:50:20.871Z,49.22
2018-06-21T10:51:20.882Z,50.78
2018-06-21T10:52:20.894Z,49.73
2018-06-21T10:53:20.906Z,50.02
2018-06-21T10:54:20.916Z,49.24
2018-06-21T10:55:20.931Z,48.95
2018-06-21T10:56:20.942Z,49.73
2018-06-21T10:57:20.955Z,49.56
2018-06-21T10:58:20.968Z,48.39
2018-06-21T10:59:20.978Z,47.90
2018-06-21T11:00:20.992Z,48.39
2018-06-21T11:01:21.004Z,49.56
2018-06-21T11:02:21.024Z,48.49
2018-06-21T11:03:21.060Z,47.90
2018-06-21T11:04:21.040Z,48.51
2018-06-21T11:05:21.057Z,48.61
2018-06-21T11:06:21.064Z,48.83
2018-06-21T11:07:21.339Z,48.44
2018-06-21T11:08:21.090Z,48.44
2018-06-21T11:09:21.104Z,47.58
2018-06-21T11:10:21.115Z,46.50
2018-06-21T11:11:21.128Z,48.26
2018-06-21T11:12:21.159Z,47.19
2018-06-21T11:13:21.154Z,47.48
2018-06-21T11:14:21.167Z,46.99
2018-06-21T11:15:21.178Z,48.55
2018-06-21T11:16:21.192Z,48.36
2018-06-21T11:17:21.205Z,47.28
2018-06-21T11:18:21.217Z,48.44
2018-06-21T11:19:21.231Z,48.24
2018-06-21T11:20:21.244Z,48.51
2018-06-21T11:21:21.277Z,49.19
2018-06-21T11:22:21.269Z,49.58
2018-06-21T11:23:21.281Z,48.71
2018-06-21T11:24:21.295Z,50.29
2018-06-21T11:25:21.309Z,48.34
2018-06-21T11:26:21.323Z,48.44
2018-06-21T11:27:21.425Z,48.24
2018-06-21T11:28:21.346Z,48.55
2018-06-21T11:29:21.360Z,48.85
2018-06-21T11:30:21.372Z,49.51
2018-06-21T11:31:21.384Z,49.02
2018-06-21T11:32:21.396Z,48.07
2018-06-21T11:33:21.411Z,48.34
2018-06-21T11:34:21.432Z,48.05
2018-06-21T11:35:21.436Z,49.22
2018-06-21T11:36:21.448Z,49.12
2018-06-21T11:37:21.462Z,49.41
2018-06-21T11:38:21.474Z,49.33
2018-06-21T11:39:21.486Z,50.51
2018-06-21T11:40:21.500Z,49.63
2018-06-21T11:41:21.513Z,49.73
2018-06-21T11:42:21.525Z,49.14
2018-06-21T11:43:21.538Z,48.24
2018-06-21T11:44:21.550Z,49.24
2018-06-21T11:45:21.563Z,48.93
2018-06-21T11:46:21.576Z,50.29
2018-06-21T11:47:21.589Z,49.51
2018-06-21T11:48:21.601Z,50.29
2018-06-21T11:49:21.615Z,50.49
2018-06-21T11:50:21.629Z,51.07
2018-06-21T11:51:21.639Z,49.32
2018-06-21T11:52:21.700Z,49.61
2018-06-21T11:53:21.665Z,49.32
2018-06-21T11:54:21.676Z,49.51
2018-06-21T11:55:21.689Z,49.41
2018-06-21T11:56:21.704Z,49.32
2018-06-21T11:57:21.715Z,49.22
2018-06-21T11:58:21.727Z,50.20
2018-06-21T11:59:21.740Z,50.39
2018-06-21T12:00:21.753Z,49.41
2018-06-21T12:01:21.764Z,49.32
2018-06-21T12:02:21.776Z,49.41
2018-06-21T12:03:21.793Z,48.80
2018-06-21T12:04:21.804Z,51.76
2018-06-21T12:05:21.814Z,51.37
2018-06-21T12:06:21.825Z,50.78
2018-06-21T12:07:21.838Z,49.71
2018-06-21T12:08:21.850Z,50.39
2018-06-21T12:09:21.867Z,50.10
2018-06-21T12:10:21.876Z,51.17
2018-06-21T12:11:21.888Z,49.51
2018-06-21T12:12:21.900Z,48.93
2018-06-21T12:13:21.923Z,49.73
2018-06-21T12:14:21.923Z,49.63
2018-06-21T12:15:21.935Z,49.33
2018-06-21T12:16:21.948Z,47.48
2018-06-21T12:17:21.960Z,46.92
2018-06-21T12:18:21.972Z,47.19
2018-06-21T12:19:21.984Z,46.97
2018-06-21T12:20:21.999Z,46.88
2018-06-21T12:21:22.008Z,47.85
2018-06-21T12:22:22.021Z,49.12
2018-06-21T12:23:22.034Z,49.73
2018-06-21T12:24:22.044Z,49.24
2018-06-21T12:25:22.065Z,46.19
2018-06-21T12:26:22.134Z,46.88
2018-06-21T12:27:22.080Z,48.51
2018-06-21T12:28:22.093Z,48.22
2018-06-21T12:29:22.111Z,45.87
2018-06-21T12:30:22.117Z,49.10
2018-06-21T12:31:22.129Z,48.22
2018-06-21T12:32:22.144Z,47.14
2018-06-21T12:33:22.154Z,48.34
2018-06-21T12:34:22.165Z,47.85
2018-06-21T12:35:22.175Z,48.34
2018-06-21T12:36:22.188Z,48.44
2018-06-21T12:37:22.199Z,48.83
2018-06-21T12:38:22.210Z,48.34
2018-06-21T12:39:22.222Z,49.51
2018-06-21T12:40:22.237Z,49.24
2018-06-21T12:41:22.246Z,47.17
2018-06-21T12:42:22.257Z,48.22
2018-06-21T12:43:22.268Z,50.43
2018-06-21T12:44:22.559Z,49.66
2018-06-21T12:45:22.293Z,49.37
2018-06-21T12:46:22.303Z,50.02
2018-06-21T12:47:22.320Z,51.19
2018-06-21T12:48:22.326Z,50.80
2018-06-21T12:49:22.339Z,50.12
2018-06-21T12:50:22.348Z,49.44
2018-06-21T12:51:22.361Z,50.78
2018-06-21T12:52:22.374Z,50.90